CDG weather

Public forecast

Using degrees Celsius for public forecast. Weather courtesy of forecast.io.

Current aviation weather report (METAR) for Charles de Gaulle International Airport

Retrieved 2020/08/10 10:30 UTC (24 minutes ago):

LFPG 101030Z 05007KT 010V090 CAVOK 29/18 Q1014 NOSIG

Aviation forecast (TAF) for Charles de Gaulle International Airport

Retrieved 2020/08/10 06:21 UTC (5 hours ago):

TAF LFPG 100500Z 1006/1112 13006KT CAVOK TX35/1112Z TN22/1104Z PROB30 TEMPO 1006/1009 FEW100TCU PROB30 TEMPO 1015/1019 VRB15G25KT -TSRA SCT080CB